Reesville, Ohio
Current Conditions -  °F | °C
As of 2:54 PM on Friday 24 Oct 2014 (Local Time) from KILN Reporting Station
Clear Clear  
Wind Chill: 63°   Ceiling: Unl
Heat Index: 63°   Visibility: 10mi
Dew Point: 37°   Wind: 0mph
Humidity: 38%   Direction: NA
Pressure: 30.06"   Gusts: NA
Location:  39.48°N, 83.68°W
Report Text: KILN 241854Z AUTO 00000KT 10SM CLR 17/03 A3006 RMK AO2 SLP186 T01720028
Loading
Personal Weather Stations






























Interactive Weather Map
Tropical Storm Tracking
New forecast layout! Learn more

10-Day Weather Forecast

Advertisements
Track Severe Weather on mobile